createdAt,value
2022-10-31T00:00:26.078Z,31.95
2022-10-31T00:01:26.069Z,31.54
2022-10-31T00:02:29.057Z,31.22
2022-10-31T00:03:29.006Z,30.82
2022-10-31T00:04:26.000Z,30.51
2022-10-31T00:05:25.990Z,30.08
2022-10-31T00:06:25.958Z,28.54
2022-10-31T00:07:25.941Z,28.54
2022-10-31T00:08:25.952Z,28.42
2022-10-31T00:09:25.911Z,28.42
2022-10-31T00:10:25.902Z,28.53
2022-10-31T00:11:25.915Z,28.63
2022-10-31T00:12:25.874Z,28.63
2022-10-31T00:13:25.885Z,28.53
2022-10-31T00:14:25.844Z,28.63
2022-10-31T00:15:25.842Z,28.74
2022-10-31T00:16:25.864Z,28.74
2022-10-31T00:17:25.804Z,28.83
2022-10-31T00:18:25.813Z,29.14
2022-10-31T00:19:25.775Z,29.44
2022-10-31T00:20:25.764Z,29.55
2022-10-31T00:21:25.755Z,29.35
2022-10-31T00:22:28.815Z,29.56
2022-10-31T00:23:28.760Z,29.87
2022-10-31T00:24:25.716Z,29.87
2022-10-31T00:25:25.698Z,29.66
2022-10-31T00:26:25.693Z,29.87
2022-10-31T00:27:25.671Z,29.77
2022-10-31T00:28:25.687Z,29.56
2022-10-31T00:29:25.642Z,29.46
2022-10-31T00:30:25.630Z,29.44
2022-10-31T00:31:25.648Z,29.04
2022-10-31T00:32:25.619Z,29.14
2022-10-31T00:33:25.600Z,28.94
2022-10-31T00:34:25.579Z,28.83
2022-10-31T00:35:25.557Z,28.63
2022-10-31T00:36:25.550Z,28.31
2022-10-31T00:37:25.541Z,28.31
2022-10-31T00:38:25.560Z,28.41
2022-10-31T00:39:25.500Z,28.72
2022-10-31T00:40:25.491Z,28.52
2022-10-31T00:41:25.471Z,28.41
2022-10-31T00:42:28.472Z,28.53
2022-10-31T00:43:28.496Z,28.52
2022-10-31T00:44:25.433Z,28.31
2022-10-31T00:45:25.412Z,28.31
2022-10-31T00:46:25.433Z,28.21
2022-10-31T00:47:25.413Z,28.31
2022-10-31T00:48:25.376Z,28.31
2022-10-31T00:49:25.376Z,28.31
2022-10-31T00:50:25.375Z,28.21
2022-10-31T00:51:25.369Z,28.21
2022-10-31T00:52:25.368Z,28.52
2022-10-31T00:53:25.318Z,28.11
2022-10-31T00:54:25.297Z,27.91
2022-10-31T00:55:25.300Z,28.01
2022-10-31T00:56:25.264Z,27.91
2022-10-31T00:57:25.272Z,28.11
2022-10-31T00:58:25.298Z,27.91
2022-10-31T00:59:25.248Z,27.80
2022-10-31T01:00:25.228Z,27.80
2022-10-31T01:01:25.347Z,27.69
2022-10-31T01:02:28.345Z,27.89
2022-10-31T01:03:28.200Z,27.79
2022-10-31T01:04:25.159Z,27.99
2022-10-31T01:05:25.148Z,28.01
2022-10-31T01:06:25.139Z,27.91
2022-10-31T01:07:25.151Z,27.91
2022-10-31T01:08:25.130Z,27.80
2022-10-31T01:09:25.098Z,27.80
2022-10-31T01:10:25.080Z,27.70
2022-10-31T01:11:25.064Z,27.70
2022-10-31T01:12:25.052Z,27.91
2022-10-31T01:13:25.054Z,27.80
2022-10-31T01:14:25.093Z,27.48
2022-10-31T01:15:25.010Z,27.69
2022-10-31T01:16:24.994Z,27.48
2022-10-31T01:17:24.993Z,27.60
2022-10-31T01:18:24.965Z,27.60
2022-10-31T01:19:24.954Z,27.80
2022-10-31T01:20:25.013Z,27.70
2022-10-31T01:21:24.932Z,28.01
2022-10-31T01:22:27.908Z,27.80
2022-10-31T01:23:27.997Z,28.01
2022-10-31T01:24:24.905Z,27.91
2022-10-31T01:25:24.916Z,27.91
2022-10-31T01:26:24.955Z,27.91
2022-10-31T01:27:24.874Z,28.01
2022-10-31T01:29:24.844Z,28.22
2022-10-31T01:30:24.888Z,28.22
2022-10-31T01:31:24.876Z,28.33
2022-10-31T01:32:24.839Z,28.63
2022-10-31T01:33:24.858Z,28.42
2022-10-31T01:34:24.830Z,28.22
2022-10-31T01:35:24.798Z,28.22
2022-10-31T01:36:24.800Z,28.22
2022-10-31T01:37:24.818Z,28.33
2022-10-31T01:38:24.710Z,28.33
2022-10-31T01:39:24.764Z,28.33
2022-10-31T01:40:24.675Z,28.22
2022-10-31T01:41:24.750Z,28.33
2022-10-31T01:42:27.672Z,28.12
2022-10-31T01:43:27.668Z,28.02
2022-10-31T01:44:24.690Z,28.12
2022-10-31T01:45:24.643Z,28.02
2022-10-31T01:46:24.652Z,28.02
2022-10-31T01:47:24.634Z,28.02
2022-10-31T01:48:24.630Z,27.92
2022-10-31T01:49:24.670Z,28.02
2022-10-31T01:50:24.602Z,28.02
2022-10-31T01:51:24.625Z,28.12
2022-10-31T01:52:24.555Z,28.02
2022-10-31T01:53:26.876Z,28.22
2022-10-31T01:54:24.613Z,28.12
2022-10-31T01:55:26.397Z,28.33
2022-10-31T01:56:24.517Z,28.33
2022-10-31T01:57:24.503Z,28.54
2022-10-31T01:58:24.548Z,28.64
2022-10-31T01:59:24.476Z,28.54
2022-10-31T02:00:24.469Z,28.64
2022-10-31T02:01:24.648Z,28.85
2022-10-31T02:02:27.576Z,28.64
2022-10-31T02:03:27.368Z,28.75
2022-10-31T02:04:24.351Z,28.75
2022-10-31T02:05:24.357Z,28.75
2022-10-31T02:06:24.328Z,28.64
2022-10-31T02:07:24.370Z,28.54
2022-10-31T02:08:24.300Z,28.64
2022-10-31T02:09:24.293Z,28.64
2022-10-31T02:10:24.240Z,28.64
2022-10-31T02:11:24.291Z,28.44
2022-10-31T02:12:24.271Z,28.44
2022-10-31T02:14:24.191Z,28.44
2022-10-31T02:15:24.201Z,28.44
2022-10-31T02:16:24.186Z,28.54
2022-10-31T02:17:24.203Z,28.44
2022-10-31T02:18:24.143Z,28.56
2022-10-31T02:19:24.164Z,28.56
2022-10-31T02:20:24.166Z,28.66
2022-10-31T02:21:24.097Z,28.66
2022-10-31T02:22:27.086Z,28.76
2022-10-31T02:23:27.107Z,28.76
2022-10-31T02:24:24.062Z,28.86
2022-10-31T02:25:24.124Z,28.96
2022-10-31T02:26:24.036Z,28.96
2022-10-31T02:27:24.024Z,28.96
2022-10-31T02:28:24.013Z,29.17
2022-10-31T02:29:23.996Z,29.08
2022-10-31T02:30:23.981Z,29.39
2022-10-31T02:31:23.996Z,29.39
2022-10-31T02:32:23.956Z,29.39
2022-10-31T02:33:23.956Z,29.39
2022-10-31T02:34:23.918Z,29.59
2022-10-31T02:35:23.968Z,29.49
2022-10-31T02:36:23.921Z,29.59
2022-10-31T02:37:23.887Z,29.69
2022-10-31T02:38:23.870Z,29.81
2022-10-31T02:39:23.869Z,29.91
2022-10-31T02:40:23.841Z,30.01
2022-10-31T02:41:23.840Z,30.22
2022-10-31T02:42:26.840Z,30.22
2022-10-31T02:43:26.819Z,30.22
2022-10-31T02:44:23.801Z,30.43
2022-10-31T02:45:23.776Z,30.43
2022-10-31T02:46:23.772Z,30.43
2022-10-31T02:47:23.810Z,30.54
2022-10-31T02:48:23.733Z,30.64
2022-10-31T02:49:23.713Z,30.74
2022-10-31T02:50:23.703Z,30.84
2022-10-31T02:51:23.692Z,30.94
2022-10-31T02:52:23.692Z,31.06
2022-10-31T02:53:23.734Z,31.27
2022-10-31T02:54:23.645Z,31.37
2022-10-31T02:55:23.635Z,31.47
2022-10-31T02:56:23.646Z,31.47
2022-10-31T02:57:23.611Z,31.68
2022-10-31T02:58:23.600Z,31.47
2022-10-31T02:59:23.596Z,31.59
2022-10-31T03:00:23.567Z,31.69
2022-10-31T03:01:23.668Z,32.10
2022-10-31T03:02:26.725Z,32.61
2022-10-31T03:03:26.629Z,32.01
2022-10-31T03:04:23.528Z,32.01
2022-10-31T03:05:23.540Z,32.21
2022-10-31T03:06:23.509Z,32.21
2022-10-31T03:07:23.498Z,32.32
2022-10-31T03:08:23.487Z,32.42
2022-10-31T03:09:23.509Z,32.42
2022-10-31T03:10:23.448Z,32.52
2022-10-31T03:11:23.419Z,32.52
2022-10-31T03:12:23.449Z,32.62
2022-10-31T03:14:23.381Z,32.32
2022-10-31T03:15:23.389Z,32.42
2022-10-31T03:16:23.339Z,32.42
2022-10-31T03:17:23.341Z,32.42
2022-10-31T03:18:23.319Z,32.42
2022-10-31T03:19:23.310Z,32.42
2022-10-31T03:20:23.333Z,32.52
2022-10-31T03:21:23.302Z,32.52
2022-10-31T03:22:26.275Z,32.54
2022-10-31T03:23:26.273Z,32.52
2022-10-31T03:24:23.236Z,32.43
2022-10-31T03:25:23.255Z,32.54
2022-10-31T03:26:23.254Z,32.64
2022-10-31T03:27:23.213Z,32.75
2022-10-31T03:28:23.204Z,32.75
2022-10-31T03:29:23.245Z,32.64
2022-10-31T03:30:23.165Z,32.75
2022-10-31T03:31:23.150Z,32.64
2022-10-31T03:32:23.199Z,32.75
2022-10-31T03:33:23.145Z,32.64
2022-10-31T03:34:23.126Z,32.64
2022-10-31T03:35:23.107Z,32.54
2022-10-31T03:36:23.088Z,32.43
2022-10-31T03:37:23.071Z,32.42
2022-10-31T03:38:23.040Z,32.32
2022-10-31T03:39:23.099Z,32.21
2022-10-31T03:40:23.052Z,32.21
2022-10-31T03:41:23.041Z,32.11
2022-10-31T03:42:25.980Z,31.91
2022-10-31T03:43:26.016Z,31.70
2022-10-31T03:44:22.990Z,31.81
2022-10-31T03:45:23.019Z,31.81
2022-10-31T03:46:22.942Z,31.60
2022-10-31T03:47:22.920Z,31.70
2022-10-31T03:48:22.920Z,31.69
2022-10-31T03:49:22.893Z,31.69
2022-10-31T03:50:22.886Z,31.59
2022-10-31T03:51:22.903Z,31.49
2022-10-31T03:52:22.902Z,31.49
2022-10-31T03:53:22.862Z,31.49
2022-10-31T03:54:22.848Z,31.38
2022-10-31T03:55:22.805Z,31.28
2022-10-31T03:56:22.824Z,31.28
2022-10-31T03:57:22.816Z,31.28
2022-10-31T03:58:22.798Z,31.28
2022-10-31T03:59:22.769Z,31.28
2022-10-31T04:00:22.777Z,31.28
2022-10-31T04:01:22.897Z,31.38
2022-10-31T04:02:25.854Z,31.38
2022-10-31T04:03:25.731Z,31.38
2022-10-31T04:04:22.696Z,31.38
2022-10-31T04:05:22.710Z,31.38
2022-10-31T04:06:22.694Z,31.38
2022-10-31T04:07:22.719Z,31.38
2022-10-31T04:08:22.677Z,31.38
2022-10-31T04:09:22.647Z,31.28
2022-10-31T04:10:22.635Z,31.38
2022-10-31T04:11:22.597Z,31.28
2022-10-31T04:12:22.595Z,31.28
2022-10-31T04:13:22.565Z,31.28
2022-10-31T04:14:22.580Z,31.28
2022-10-31T04:15:22.581Z,31.28
2022-10-31T04:16:22.510Z,31.28
2022-10-31T04:17:22.510Z,31.18
2022-10-31T04:18:22.519Z,31.18
2022-10-31T04:19:22.480Z,31.28
2022-10-31T04:20:22.469Z,31.18
2022-10-31T04:21:22.463Z,31.28
2022-10-31T04:22:25.553Z,31.38
2022-10-31T04:23:25.468Z,31.28
2022-10-31T04:24:22.432Z,31.38
2022-10-31T04:25:22.394Z,31.38
2022-10-31T04:26:22.384Z,31.28
2022-10-31T04:27:22.374Z,31.28
2022-10-31T04:28:22.472Z,31.28
2022-10-31T04:29:22.377Z,31.28
2022-10-31T04:30:22.327Z,31.28
2022-10-31T04:31:22.347Z,31.28
2022-10-31T04:32:22.297Z,31.18
2022-10-31T04:33:22.357Z,31.28
2022-10-31T04:34:22.314Z,31.28
2022-10-31T04:35:22.264Z,31.28
2022-10-31T04:36:22.254Z,31.18
2022-10-31T04:37:22.248Z,31.38
2022-10-31T04:38:22.260Z,31.28
2022-10-31T04:39:25.781Z,31.27
2022-10-31T04:40:22.209Z,31.18
2022-10-31T04:41:22.190Z,31.16
2022-10-31T04:42:25.159Z,31.16
2022-10-31T04:43:25.201Z,31.06
2022-10-31T04:44:22.134Z,31.06
2022-10-31T04:45:22.136Z,31.06
2022-10-31T04:46:22.099Z,31.06
2022-10-31T04:47:22.121Z,31.06
2022-10-31T04:48:22.100Z,30.96
2022-10-31T04:49:22.111Z,30.96
2022-10-31T04:50:22.051Z,30.96
2022-10-31T04:51:22.041Z,31.06
2022-10-31T04:52:22.066Z,30.96
2022-10-31T04:53:22.042Z,30.96
2022-10-31T04:54:22.020Z,30.86
2022-10-31T04:55:21.982Z,30.86
2022-10-31T04:56:21.998Z,30.96
2022-10-31T04:57:21.943Z,30.86
2022-10-31T04:58:21.997Z,30.86
2022-10-31T04:59:21.944Z,30.86
2022-10-31T05:00:21.909Z,30.76
2022-10-31T05:01:22.050Z,30.76
2022-10-31T05:02:24.943Z,30.65
2022-10-31T05:03:24.905Z,30.65
2022-10-31T05:04:21.854Z,30.65
2022-10-31T05:05:21.845Z,30.55
2022-10-31T05:06:21.835Z,30.55
2022-10-31T05:07:21.812Z,30.76
2022-10-31T05:08:21.830Z,30.65
2022-10-31T05:09:21.826Z,30.65
2022-10-31T05:10:21.777Z,30.76
2022-10-31T05:11:21.778Z,30.65
2022-10-31T05:12:21.758Z,30.65
2022-10-31T05:14:21.727Z,30.65
2022-10-31T05:15:21.738Z,30.65
2022-10-31T05:16:21.705Z,30.65
2022-10-31T05:17:21.680Z,30.65
2022-10-31T05:18:21.683Z,30.76
2022-10-31T05:19:21.649Z,30.76
2022-10-31T05:20:21.638Z,30.76
2022-10-31T05:21:21.647Z,30.65
2022-10-31T05:22:24.601Z,30.76
2022-10-31T05:23:24.614Z,30.86
2022-10-31T05:24:21.600Z,30.76
2022-10-31T05:25:21.569Z,30.76
2022-10-31T05:26:21.588Z,30.76
2022-10-31T05:27:21.537Z,30.86
2022-10-31T05:28:21.523Z,30.76
2022-10-31T05:29:21.526Z,30.76
2022-10-31T05:30:21.493Z,30.76
2022-10-31T05:31:21.505Z,30.55
2022-10-31T05:32:21.553Z,30.65
2022-10-31T05:33:21.455Z,30.55
2022-10-31T05:34:21.445Z,30.55
2022-10-31T05:35:21.489Z,30.76
2022-10-31T05:36:21.443Z,30.45
2022-10-31T05:37:21.396Z,30.45
2022-10-31T05:38:21.447Z,30.45
2022-10-31T05:39:21.384Z,30.45
2022-10-31T05:40:21.346Z,30.45
2022-10-31T05:41:21.376Z,30.55
2022-10-31T05:42:24.325Z,30.55
2022-10-31T05:43:24.397Z,30.45
2022-10-31T05:44:21.312Z,30.24
2022-10-31T05:45:21.287Z,30.35
2022-10-31T05:46:21.373Z,30.24
2022-10-31T05:47:21.273Z,30.24
2022-10-31T05:48:21.247Z,30.24
2022-10-31T05:49:21.299Z,30.23
2022-10-31T05:50:21.240Z,30.24
2022-10-31T05:51:21.198Z,30.14
2022-10-31T05:52:21.199Z,30.24
2022-10-31T05:53:21.179Z,30.14
2022-10-31T05:54:21.171Z,30.24
2022-10-31T05:55:21.216Z,30.45
2022-10-31T05:56:21.139Z,30.45
2022-10-31T05:57:21.112Z,30.45
2022-10-31T05:58:21.112Z,30.24
2022-10-31T05:59:21.109Z,30.24
2022-10-31T06:00:21.079Z,30.45
2022-10-31T06:01:21.171Z,30.24
2022-10-31T06:02:24.071Z,30.35
2022-10-31T06:03:24.041Z,30.45
2022-10-31T06:04:21.092Z,30.45
2022-10-31T06:05:21.040Z,30.35
2022-10-31T06:06:20.998Z,30.35
2022-10-31T06:07:20.995Z,30.24
2022-10-31T06:08:20.977Z,30.24
2022-10-31T06:09:20.964Z,30.24
2022-10-31T06:10:20.947Z,30.35
2022-10-31T06:11:20.924Z,30.45
2022-10-31T06:12:20.998Z,30.45
2022-10-31T06:13:20.887Z,30.45
2022-10-31T06:14:20.867Z,30.55
2022-10-31T06:15:24.171Z,30.45
2022-10-31T06:16:20.858Z,30.45
2022-10-31T06:17:20.830Z,30.55
2022-10-31T06:18:20.889Z,30.45
2022-10-31T06:19:20.828Z,30.65
2022-10-31T06:20:20.779Z,30.55
2022-10-31T06:21:20.769Z,30.55
2022-10-31T06:22:23.769Z,30.55
2022-10-31T06:23:23.810Z,30.55
2022-10-31T06:24:20.727Z,30.55
2022-10-31T06:25:20.720Z,30.55
2022-10-31T06:26:20.721Z,30.55
2022-10-31T06:27:20.681Z,30.65
2022-10-31T06:28:20.682Z,30.65
2022-10-31T06:29:20.710Z,30.76
2022-10-31T06:30:20.654Z,30.55
2022-10-31T06:31:20.634Z,30.96
2022-10-31T06:32:20.624Z,30.65
2022-10-31T06:33:20.604Z,30.96
2022-10-31T06:34:20.592Z,30.76
2022-10-31T06:35:20.634Z,30.55
2022-10-31T06:36:20.634Z,30.65
2022-10-31T06:37:20.534Z,30.76
2022-10-31T06:38:20.543Z,30.67
2022-10-31T06:39:20.535Z,30.87
2022-10-31T06:40:20.524Z,30.77
2022-10-31T06:41:20.600Z,30.87
2022-10-31T06:42:23.475Z,30.87
2022-10-31T06:43:23.457Z,30.87
2022-10-31T06:44:20.446Z,30.77
2022-10-31T06:45:20.417Z,30.87
2022-10-31T06:46:20.408Z,30.77
2022-10-31T06:47:20.438Z,30.77
2022-10-31T06:48:20.840Z,30.67
2022-10-31T06:49:20.367Z,30.67
2022-10-31T06:50:20.367Z,30.87
2022-10-31T06:51:20.331Z,30.87
2022-10-31T06:52:20.329Z,30.87
2022-10-31T06:53:20.369Z,30.87
2022-10-31T06:54:20.303Z,30.87
2022-10-31T06:55:20.300Z,31.08
2022-10-31T06:56:20.289Z,30.77
2022-10-31T06:57:20.280Z,30.87
2022-10-31T06:58:20.261Z,30.77
2022-10-31T06:59:20.512Z,30.77
2022-10-31T07:00:27.909Z,30.87
2022-10-31T07:01:20.308Z,30.77
2022-10-31T07:02:23.230Z,30.67
2022-10-31T07:03:23.186Z,30.87
2022-10-31T07:04:20.166Z,30.87
2022-10-31T07:05:20.213Z,30.87
2022-10-31T07:06:20.123Z,30.87
2022-10-31T07:07:20.173Z,30.98
2022-10-31T07:08:20.095Z,30.87
2022-10-31T07:09:20.119Z,30.98
2022-10-31T07:10:20.074Z,30.98
2022-10-31T07:11:20.105Z,30.98
2022-10-31T07:12:20.096Z,30.77
2022-10-31T07:13:20.072Z,30.98
2022-10-31T07:14:20.042Z,30.87
2022-10-31T07:15:20.017Z,30.77
2022-10-31T07:16:19.975Z,30.87
2022-10-31T07:17:19.996Z,30.77
2022-10-31T07:18:19.947Z,30.87
2022-10-31T07:19:19.938Z,30.98
2022-10-31T07:20:19.927Z,31.18
2022-10-31T07:21:19.908Z,31.08
2022-10-31T07:22:22.937Z,30.98
2022-10-31T07:24:12.697Z,30.98
2022-10-31T07:25:12.673Z,30.87
2022-10-31T07:26:12.661Z,30.98
2022-10-31T07:27:12.650Z,30.87
2022-10-31T07:28:12.681Z,30.77
2022-10-31T07:29:12.615Z,31.08
2022-10-31T07:30:12.604Z,30.87
2022-10-31T07:31:12.584Z,30.87
2022-10-31T07:32:12.583Z,30.87
2022-10-31T07:33:12.552Z,30.87
2022-10-31T07:34:12.646Z,30.87
2022-10-31T07:35:12.536Z,30.87
2022-10-31T07:36:12.514Z,30.77
2022-10-31T07:37:12.495Z,30.87
2022-10-31T07:38:12.488Z,30.87
2022-10-31T07:39:12.466Z,30.98
2022-10-31T07:40:12.515Z,30.98
2022-10-31T07:41:12.445Z,30.98
2022-10-31T07:42:12.437Z,30.98
2022-10-31T07:43:15.424Z,31.08
2022-10-31T07:44:15.433Z,31.06
2022-10-31T07:45:12.394Z,30.96
2022-10-31T07:46:12.438Z,30.86
2022-10-31T07:47:12.357Z,31.16
2022-10-31T07:48:12.340Z,30.96
2022-10-31T07:49:12.331Z,31.06
2022-10-31T07:50:12.309Z,31.06
2022-10-31T07:51:12.301Z,30.96
2022-10-31T07:52:12.310Z,31.06
2022-10-31T07:53:12.271Z,31.16
2022-10-31T07:54:12.281Z,30.96
2022-10-31T07:55:12.250Z,31.06
2022-10-31T07:56:12.236Z,31.06
2022-10-31T07:57:12.219Z,30.86
2022-10-31T07:58:12.201Z,30.84
2022-10-31T07:59:12.252Z,30.74
2022-10-31T08:00:12.172Z,30.74
2022-10-31T08:02:12.156Z,30.74
2022-10-31T08:03:15.140Z,30.84
2022-10-31T08:04:15.164Z,30.64
2022-10-31T08:05:12.104Z,30.74
2022-10-31T08:06:12.154Z,31.05
2022-10-31T08:07:12.081Z,30.84
2022-10-31T08:08:12.066Z,30.94
2022-10-31T08:09:12.046Z,31.05
2022-10-31T08:10:12.036Z,31.25
2022-10-31T08:11:12.024Z,30.94
2022-10-31T08:12:12.065Z,31.03
2022-10-31T08:13:11.993Z,30.83
2022-10-31T08:14:11.977Z,30.83
2022-10-31T08:15:11.970Z,30.73
2022-10-31T08:16:11.947Z,30.62
2022-10-31T08:17:11.929Z,30.73
2022-10-31T08:18:11.989Z,30.73
2022-10-31T08:19:11.906Z,30.73
2022-10-31T08:20:11.895Z,30.83
2022-10-31T08:21:11.878Z,30.93
2022-10-31T08:22:11.868Z,31.02
2022-10-31T08:23:14.894Z,30.91
2022-10-31T08:24:14.850Z,30.82
2022-10-31T08:25:11.827Z,30.61
2022-10-31T08:26:11.811Z,30.71
2022-10-31T08:27:11.799Z,30.82
2022-10-31T08:28:11.801Z,30.82
2022-10-31T08:29:11.760Z,31.41
2022-10-31T08:30:11.751Z,31.22
2022-10-31T08:31:11.732Z,31.63
2022-10-31T08:32:11.729Z,32.86
2022-10-31T08:33:11.732Z,32.87
2022-10-31T08:34:11.693Z,32.15
2022-10-31T08:35:11.714Z,32.06
2022-10-31T08:36:11.663Z,31.34
2022-10-31T08:37:11.644Z,31.13
2022-10-31T08:38:11.697Z,31.13
2022-10-31T08:39:11.668Z,30.51
2022-10-31T08:40:11.609Z,30.71
2022-10-31T08:41:11.585Z,30.30
2022-10-31T08:42:11.575Z,30.80
2022-10-31T08:43:14.556Z,31.84
2022-10-31T08:44:14.607Z,30.91
2022-10-31T08:45:11.526Z,30.80
2022-10-31T08:46:11.527Z,31.31
2022-10-31T08:47:11.504Z,31.41
2022-10-31T08:48:11.495Z,32.12
2022-10-31T08:49:11.474Z,31.22
2022-10-31T08:50:11.509Z,31.51
2022-10-31T08:51:11.451Z,30.80
2022-10-31T08:52:14.438Z,30.69
2022-10-31T08:53:11.417Z,30.80
2022-10-31T08:54:11.399Z,30.80
2022-10-31T08:55:11.400Z,31.01
2022-10-31T08:56:11.400Z,30.89
2022-10-31T08:57:11.374Z,30.89
2022-10-31T08:58:11.352Z,31.09
2022-10-31T08:59:11.344Z,31.40
2022-10-31T09:00:11.325Z,31.40
2022-10-31T09:01:11.814Z,31.29
2022-10-31T09:02:11.320Z,31.20
2022-10-31T09:03:14.278Z,31.09
2022-10-31T09:04:14.280Z,31.18
2022-10-31T09:05:11.251Z,31.38
2022-10-31T09:06:11.298Z,31.81
2022-10-31T09:07:26.598Z,32.11
2022-10-31T09:08:16.296Z,31.81
2022-10-31T09:09:11.196Z,31.79
2022-10-31T09:10:11.184Z,31.69
2022-10-31T09:11:11.165Z,31.28
2022-10-31T09:12:11.204Z,31.38
2022-10-31T09:13:11.135Z,31.06
2022-10-31T09:14:11.133Z,30.96
2022-10-31T09:15:11.106Z,31.06
2022-10-31T09:16:11.102Z,31.37
2022-10-31T09:17:11.088Z,31.16
2022-10-31T09:18:11.097Z,31.06
2022-10-31T09:19:11.653Z,31.06
2022-10-31T09:20:11.046Z,31.06
2022-10-31T09:21:11.031Z,31.06
2022-10-31T09:22:11.026Z,31.47
2022-10-31T09:23:13.998Z,31.77
2022-10-31T09:24:14.052Z,32.08
2022-10-31T09:25:10.980Z,31.77
2022-10-31T09:26:10.971Z,31.37
2022-10-31T09:27:10.949Z,31.47
2022-10-31T09:28:10.939Z,31.27
2022-10-31T09:29:10.919Z,31.37
2022-10-31T09:30:10.943Z,31.37
2022-10-31T09:31:10.895Z,100.00
2022-10-31T09:32:10.880Z,100.00
2022-10-31T09:33:10.872Z,100.00
2022-10-31T09:34:10.882Z,100.00
2022-10-31T09:36:10.828Z,100.00
2022-10-31T09:37:10.811Z,100.00
2022-10-31T09:38:10.882Z,100.00
2022-10-31T09:39:10.785Z,100.00
2022-10-31T09:40:10.776Z,32.68
2022-10-31T09:41:10.768Z,100.00
2022-10-31T09:42:10.748Z,32.37
2022-10-31T09:43:13.783Z,32.98
2022-10-31T09:44:13.727Z,35.22
2022-10-31T09:45:10.703Z,35.34
2022-10-31T09:46:10.686Z,34.22
2022-10-31T09:47:10.674Z,34.01
2022-10-31T09:48:10.667Z,33.30
2022-10-31T09:49:10.734Z,33.30
2022-10-31T09:50:10.637Z,33.51
2022-10-31T09:51:10.626Z,33.71
2022-10-31T09:53:10.597Z,33.10
2022-10-31T09:54:10.606Z,32.78
2022-10-31T09:55:10.559Z,32.27
2022-10-31T09:56:10.582Z,32.07
2022-10-31T09:57:10.543Z,31.86
2022-10-31T09:58:10.529Z,31.76
2022-10-31T09:59:10.509Z,31.57
2022-10-31T10:00:10.509Z,31.16
2022-10-31T10:01:10.637Z,31.16
2022-10-31T10:02:10.587Z,31.05
2022-10-31T10:03:13.458Z,31.35
2022-10-31T10:04:16.894Z,31.35
2022-10-31T10:05:11.462Z,31.66
2022-10-31T10:06:10.423Z,31.35
2022-10-31T10:07:10.404Z,31.05
2022-10-31T10:08:10.383Z,31.05
2022-10-31T10:09:10.430Z,31.05
2022-10-31T10:10:10.405Z,31.76
2022-10-31T10:11:10.345Z,31.77
2022-10-31T10:12:10.338Z,32.28
2022-10-31T10:13:10.637Z,31.96
2022-10-31T10:14:10.304Z,31.96
2022-10-31T10:15:10.298Z,31.66
2022-10-31T10:16:10.305Z,31.76
2022-10-31T10:17:10.271Z,31.34
2022-10-31T10:18:10.255Z,31.74
2022-10-31T10:19:10.268Z,32.05
2022-10-31T10:20:11.180Z,33.18
2022-10-31T10:21:10.238Z,32.57
2022-10-31T10:22:10.206Z,32.68
2022-10-31T10:23:13.200Z,31.66
2022-10-31T10:24:13.179Z,32.05
2022-10-31T10:25:10.151Z,32.68
2022-10-31T10:26:11.384Z,32.78
2022-10-31T10:27:10.141Z,32.47
2022-10-31T10:28:10.120Z,32.57
2022-10-31T10:29:10.102Z,32.05
2022-10-31T10:30:10.088Z,33.37
2022-10-31T10:31:10.070Z,32.35
2022-10-31T10:32:10.095Z,31.34
2022-10-31T10:33:10.041Z,31.13
2022-10-31T10:34:10.036Z,31.24
2022-10-31T10:35:10.022Z,30.83
2022-10-31T10:36:10.041Z,30.82
2022-10-31T10:37:09.992Z,30.61
2022-10-31T10:38:09.974Z,30.82
2022-10-31T10:39:09.962Z,31.22
2022-10-31T10:40:09.945Z,31.32
2022-10-31T10:41:09.949Z,31.41
2022-10-31T10:42:09.964Z,31.71
2022-10-31T10:43:12.905Z,31.31
2022-10-31T10:44:12.909Z,31.93
2022-10-31T10:45:09.876Z,31.73
2022-10-31T10:46:11.785Z,31.83
2022-10-31T10:47:09.847Z,31.63
2022-10-31T10:48:09.909Z,31.62
2022-10-31T10:49:09.818Z,31.92
2022-10-31T10:50:09.819Z,31.82
2022-10-31T10:51:16.034Z,32.02
2022-10-31T10:52:26.949Z,31.82
2022-10-31T10:53:10.789Z,31.92
2022-10-31T10:54:10.749Z,32.02
2022-10-31T10:55:09.760Z,32.02
2022-10-31T10:56:09.742Z,32.43
2022-10-31T10:57:09.710Z,32.43
2022-10-31T10:58:09.701Z,32.63
2022-10-31T10:59:09.703Z,32.93
2022-10-31T11:00:09.705Z,33.44
2022-10-31T11:01:09.847Z,33.44
2022-10-31T11:02:09.657Z,33.44
2022-10-31T11:03:12.624Z,33.44
2022-10-31T11:04:12.635Z,33.34
2022-10-31T11:05:09.635Z,33.14
2022-10-31T11:06:09.595Z,32.83
2022-10-31T11:07:09.586Z,32.93
2022-10-31T11:08:09.570Z,32.83
2022-10-31T11:09:09.543Z,32.93
2022-10-31T11:10:09.537Z,33.04
2022-10-31T11:11:09.545Z,33.34
2022-10-31T11:12:09.508Z,34.78
2022-10-31T11:13:09.486Z,34.17
2022-10-31T11:14:09.477Z,34.78
2022-10-31T11:15:09.508Z,34.58
2022-10-31T11:16:09.449Z,33.97
2022-10-31T11:17:09.429Z,33.36
2022-10-31T11:18:09.419Z,32.75
2022-10-31T11:19:09.408Z,32.65
2022-10-31T11:20:12.427Z,32.65
2022-10-31T11:21:10.400Z,32.73
2022-10-31T11:22:09.375Z,32.53
2022-10-31T11:23:12.368Z,32.63
2022-10-31T11:24:12.358Z,32.93
2022-10-31T11:25:09.320Z,33.34
2022-10-31T11:26:09.739Z,33.34
2022-10-31T11:27:09.292Z,33.04
2022-10-31T11:28:09.282Z,33.85
2022-10-31T11:29:09.264Z,32.93
2022-10-31T11:30:09.275Z,33.34
2022-10-31T11:31:09.265Z,33.04
2022-10-31T11:32:09.223Z,32.83
2022-10-31T11:33:09.214Z,32.63
2022-10-31T11:34:09.195Z,32.31
2022-10-31T11:35:09.185Z,32.93
2022-10-31T11:36:09.203Z,33.24
2022-10-31T11:37:09.154Z,33.34
2022-10-31T11:38:09.168Z,32.53
2022-10-31T11:39:09.156Z,32.73
2022-10-31T11:40:09.116Z,31.82
2022-10-31T11:41:09.105Z,31.21
2022-10-31T11:42:09.256Z,31.51
2022-10-31T11:43:12.121Z,31.10
2022-10-31T11:44:12.128Z,31.31
2022-10-31T11:45:09.048Z,30.18
2022-10-31T11:46:09.028Z,30.38
2022-10-31T11:47:09.030Z,30.38
2022-10-31T11:48:08.998Z,30.28
2022-10-31T11:49:08.999Z,30.26
2022-10-31T11:50:09.031Z,30.87
2022-10-31T11:51:08.960Z,31.59
2022-10-31T11:52:08.950Z,31.48
2022-10-31T11:53:08.941Z,31.79
2022-10-31T11:54:08.920Z,31.59
2022-10-31T11:55:08.915Z,32.70
2022-10-31T11:56:08.921Z,32.80
2022-10-31T11:57:08.884Z,33.01
2022-10-31T11:58:08.874Z,33.62
2022-10-31T11:59:08.856Z,33.11
2022-10-31T12:00:08.870Z,32.60
2022-10-31T12:01:08.938Z,32.48
2022-10-31T12:02:08.878Z,32.68
2022-10-31T12:03:11.804Z,32.18
2022-10-31T12:04:11.804Z,33.50
2022-10-31T12:05:08.809Z,35.22
2022-10-31T12:06:08.746Z,39.59
2022-10-31T12:07:08.774Z,39.81
2022-10-31T12:08:08.732Z,37.98
2022-10-31T12:09:08.715Z,37.05
2022-10-31T12:10:08.697Z,36.75
2022-10-31T12:11:08.737Z,35.63
2022-10-31T12:12:08.667Z,35.42
2022-10-31T12:13:08.670Z,35.42
2022-10-31T12:14:08.647Z,35.94
2022-10-31T12:15:08.628Z,36.24
2022-10-31T12:16:08.637Z,35.72
2022-10-31T12:17:08.670Z,35.94
2022-10-31T12:18:08.624Z,36.54
2022-10-31T12:19:08.599Z,35.94
2022-10-31T12:20:08.561Z,36.95
2022-10-31T12:21:08.551Z,36.44
2022-10-31T12:22:08.530Z,35.94
2022-10-31T12:23:11.561Z,35.53
2022-10-31T12:24:11.542Z,35.22
2022-10-31T12:25:08.492Z,35.02
2022-10-31T12:26:08.474Z,34.82
2022-10-31T12:27:08.522Z,35.41
2022-10-31T12:28:08.444Z,35.61
2022-10-31T12:29:08.432Z,35.61
2022-10-31T12:30:09.903Z,35.82
2022-10-31T12:31:08.414Z,35.51
2022-10-31T12:32:08.393Z,35.61
2022-10-31T12:33:08.411Z,36.73
2022-10-31T12:34:08.364Z,37.04
2022-10-31T12:35:08.355Z,37.54
2022-10-31T12:36:10.971Z,39.78
2022-10-31T12:37:09.345Z,40.08
2022-10-31T12:38:08.307Z,39.98
2022-10-31T12:39:08.300Z,39.49
2022-10-31T12:40:08.301Z,38.17
2022-10-31T12:41:08.286Z,37.66
2022-10-31T12:42:08.283Z,36.85
2022-10-31T12:43:11.238Z,36.75
2022-10-31T12:44:11.251Z,36.75
2022-10-31T12:45:08.216Z,37.46
2022-10-31T12:46:08.199Z,37.96
2022-10-31T12:47:08.392Z,37.13
2022-10-31T12:48:08.191Z,37.64
2022-10-31T12:49:08.161Z,37.74
2022-10-31T12:50:08.149Z,37.34
2022-10-31T12:51:08.132Z,39.78
2022-10-31T12:52:08.122Z,39.06
2022-10-31T12:53:08.242Z,40.38
2022-10-31T12:54:08.092Z,41.30
2022-10-31T12:55:08.072Z,40.59
2022-10-31T12:56:08.062Z,40.38
2022-10-31T12:57:08.042Z,40.36
2022-10-31T12:58:08.034Z,40.56
2022-10-31T12:59:08.044Z,44.54
2022-10-31T13:00:08.005Z,45.28